createdAt,value
2022-08-05T00:00:22.582Z,59.14
2022-08-05T00:02:52.238Z,59.62
2022-08-05T00:06:02.063Z,58.85
2022-08-05T00:08:32.616Z,59.23
2022-08-05T00:11:00.604Z,59.59
2022-08-05T00:13:39.053Z,59.39
2022-08-05T00:16:12.386Z,59.13
2022-08-05T00:18:42.360Z,58.89
2022-08-05T00:21:11.086Z,58.70
2022-08-05T00:23:45.992Z,59.06
2022-08-05T00:26:16.342Z,58.36
2022-08-05T00:28:45.983Z,59.02
2022-08-05T00:31:14.842Z,58.90
2022-08-05T00:34:56.489Z,59.24
2022-08-05T00:37:12.833Z,59.58
2022-08-05T00:39:18.934Z,59.23
2022-08-05T00:41:55.628Z,58.42
2022-08-05T00:44:30.725Z,58.35
2022-08-05T00:47:03.740Z,58.83
2022-08-05T00:49:32.954Z,59.49
2022-08-05T00:52:12.762Z,59.25
2022-08-05T00:54:41.201Z,59.47
2022-08-05T00:57:11.218Z,58.71
2022-08-05T00:59:44.594Z,58.85
2022-08-05T01:02:13.305Z,59.78
2022-08-05T01:04:44.640Z,59.89
2022-08-05T01:07:18.202Z,59.26
2022-08-05T01:09:46.474Z,59.43
2022-08-05T01:12:29.722Z,59.27
2022-08-05T01:15:05.201Z,58.55
2022-08-05T01:17:39.988Z,58.24
2022-08-05T01:20:30.183Z,57.82
2022-08-05T01:23:15.027Z,57.61
2022-08-05T01:26:04.783Z,57.99
2022-08-05T01:28:39.520Z,58.11
2022-08-05T01:31:12.488Z,58.61
2022-08-05T01:33:49.226Z,58.55
2022-08-05T01:36:28.182Z,59.15
2022-08-05T01:39:00.269Z,59.09
2022-08-05T01:41:36.236Z,59.13
2022-08-05T01:44:11.235Z,59.13
2022-08-05T01:46:46.394Z,59.04
2022-08-05T01:49:23.789Z,59.12
2022-08-05T01:51:58.268Z,58.87
2022-08-05T01:54:32.576Z,59.33
2022-08-05T01:58:10.381Z,58.92
2022-08-05T01:59:53.696Z,58.97
2022-08-05T02:02:26.236Z,59.17
2022-08-05T02:04:59.393Z,59.24
2022-08-05T02:07:30.421Z,57.97
2022-08-05T02:09:58.842Z,58.28
2022-08-05T02:12:35.506Z,58.66
2022-08-05T02:15:08.036Z,58.74
2022-08-05T02:18:28.045Z,59.29
2022-08-05T02:20:39.530Z,59.25
2022-08-05T02:23:12.125Z,59.40
2022-08-05T02:25:49.464Z,59.69
2022-08-05T02:28:28.261Z,59.81
2022-08-05T02:31:01.828Z,59.12
2022-08-05T02:33:36.060Z,59.43
2022-08-05T02:36:09.862Z,59.32
2022-08-05T02:38:44.935Z,59.16
2022-08-05T02:41:23.191Z,59.85
2022-08-05T02:44:02.276Z,59.83
2022-08-05T02:46:43.974Z,58.77
2022-08-05T02:49:26.862Z,59.17
2022-08-05T02:52:03.424Z,59.02
2022-08-05T02:54:35.769Z,59.17
2022-08-05T02:57:10.193Z,59.77
2022-08-05T02:59:56.436Z,59.84
2022-08-05T03:02:30.604Z,59.81
2022-08-05T03:05:01.067Z,59.73
2022-08-05T03:08:00.647Z,59.38
2022-08-05T03:10:24.363Z,59.52
2022-08-05T03:12:53.066Z,59.48
2022-08-05T03:15:23.604Z,59.45
2022-08-05T03:17:55.982Z,59.62
2022-08-05T03:20:26.466Z,59.55
2022-08-05T03:22:57.667Z,59.66
2022-08-05T03:25:33.241Z,59.72
2022-08-05T03:28:18.864Z,60.22
2022-08-05T03:30:49.668Z,60.19
2022-08-05T03:33:20.425Z,60.35
2022-08-05T03:35:50.639Z,60.70
2022-08-05T03:38:32.943Z,60.57
2022-08-05T03:41:08.543Z,60.45
2022-08-05T03:44:08.499Z,60.96
2022-08-05T03:46:29.648Z,60.81
2022-08-05T03:48:59.697Z,60.88
2022-08-05T03:52:39.253Z,60.65
2022-08-05T03:55:54.208Z,61.13
2022-08-05T03:57:18.360Z,60.65
2022-08-05T03:59:54.677Z,60.88
2022-08-05T04:02:38.271Z,60.98
2022-08-05T04:05:10.351Z,61.03
2022-08-05T04:07:53.525Z,60.68
2022-08-05T04:10:27.724Z,60.68
2022-08-05T04:12:58.944Z,60.67
2022-08-05T04:15:27.889Z,60.95
2022-08-05T04:18:03.356Z,60.73
2022-08-05T04:20:32.475Z,60.89
2022-08-05T04:23:01.359Z,60.73
2022-08-05T04:25:57.058Z,60.72
2022-08-05T04:28:17.392Z,60.53
2022-08-05T04:30:46.078Z,60.59
2022-08-05T04:33:17.116Z,60.93
2022-08-05T04:36:11.094Z,60.57
2022-08-05T04:38:55.722Z,60.56
2022-08-05T04:41:36.586Z,60.52
2022-08-05T04:44:08.855Z,60.57
2022-08-05T04:46:38.233Z,60.68
2022-08-05T04:49:12.444Z,60.83
2022-08-05T04:51:44.877Z,60.67
2022-08-05T04:54:14.602Z,60.50
2022-08-05T04:56:42.575Z,60.84
2022-08-05T04:59:21.839Z,60.48
2022-08-05T05:02:35.306Z,60.43
2022-08-05T05:04:44.076Z,60.56
2022-08-05T05:07:17.840Z,60.67
2022-08-05T05:09:45.917Z,60.54
2022-08-05T05:12:13.915Z,60.36
2022-08-05T05:14:50.730Z,60.25
2022-08-05T05:19:56.432Z,60.23
2022-08-05T05:22:31.769Z,60.65
2022-08-05T05:25:16.146Z,60.49
2022-08-05T08:03:13.847Z,60.08
2022-08-05T08:05:49.816Z,59.59
2022-08-05T08:08:22.526Z,59.47
2022-08-05T08:10:55.606Z,57.44
2022-08-05T08:13:29.048Z,57.69
2022-08-05T08:16:50.851Z,57.91
2022-08-05T08:18:50.204Z,57.47
2022-08-05T08:21:18.754Z,58.00
2022-08-05T08:24:03.101Z,56.74
2022-08-05T08:26:32.198Z,56.44
2022-08-05T08:29:09.698Z,56.49
2022-08-05T08:31:48.673Z,55.93
2022-08-05T08:34:18.731Z,54.79
2022-08-05T08:36:54.671Z,55.12
2022-08-05T08:39:24.921Z,55.19
2022-08-05T08:41:59.813Z,54.80
2022-08-05T08:45:23.520Z,55.26
2022-08-05T08:48:05.618Z,55.66
2022-08-05T08:50:33.002Z,55.85
2022-08-05T08:53:07.903Z,55.33
2022-08-05T08:56:02.882Z,55.31
2022-08-05T08:58:37.198Z,55.61
2022-08-05T09:01:16.286Z,55.39
2022-08-05T09:03:47.558Z,55.97
2022-08-05T09:06:21.223Z,55.72
2022-08-05T09:08:56.343Z,53.83
2022-08-05T09:11:53.759Z,53.64
2022-08-05T09:14:56.937Z,52.38
2022-08-05T09:17:01.607Z,52.53
2022-08-05T09:19:36.562Z,52.62
2022-08-05T09:22:28.796Z,51.72
2022-08-05T09:25:00.480Z,51.88
2022-08-05T09:28:04.067Z,52.28
2022-08-05T09:30:23.222Z,51.84
2022-08-05T09:32:52.966Z,52.28
2022-08-05T09:35:27.098Z,52.54
2022-08-05T09:38:16.199Z,51.93
2022-08-05T09:40:52.205Z,51.45
2022-08-05T09:43:41.139Z,48.48
2022-08-05T09:46:28.068Z,49.72
2022-08-05T09:49:07.199Z,49.42
2022-08-05T09:51:49.677Z,50.37
2022-08-05T09:54:32.150Z,48.30
2022-08-05T09:57:01.464Z,49.33
2022-08-05T09:59:35.126Z,48.46
2022-08-05T10:02:05.562Z,49.25
2022-08-05T10:04:41.289Z,47.68
2022-08-05T10:07:19.984Z,48.05
2022-08-05T10:10:14.872Z,45.41
2022-08-05T10:12:49.841Z,43.72
2022-08-05T10:15:26.340Z,41.86
2022-08-05T10:18:16.579Z,43.07
2022-08-05T10:20:47.712Z,43.59
2022-08-05T10:23:34.104Z,44.76
2022-08-05T10:26:13.806Z,44.82
2022-08-05T10:28:44.912Z,45.08
2022-08-05T10:32:47.964Z,44.93
2022-08-05T10:34:12.736Z,45.26
2022-08-05T10:36:43.580Z,45.06
2022-08-05T10:39:24.353Z,44.89
2022-08-05T10:42:14.892Z,44.78
2022-08-05T10:44:48.378Z,45.74
2022-08-05T10:47:26.585Z,46.40
2022-08-05T10:50:33.097Z,44.44
2022-08-05T10:53:01.677Z,42.63
2022-08-05T10:56:03.498Z,43.30
2022-08-05T10:58:23.126Z,45.17
2022-08-05T11:01:09.381Z,42.90
2022-08-05T11:04:00.985Z,41.50
2022-08-05T11:06:30.739Z,42.06
2022-08-05T11:09:32.500Z,42.00
2022-08-05T11:12:50.379Z,42.19
2022-08-05T11:16:00.192Z,40.63
2022-08-05T11:18:30.246Z,40.67
2022-08-05T11:21:40.911Z,40.87
2022-08-05T11:24:30.581Z,42.38
2022-08-05T11:27:51.090Z,41.44
2022-08-05T11:30:20.125Z,41.21
2022-08-05T11:32:50.161Z,40.39
2022-08-05T11:36:08.042Z,40.56
2022-08-05T11:38:54.962Z,39.95
2022-08-05T11:41:57.867Z,41.29
2022-08-05T11:44:40.201Z,41.64
2022-08-05T11:47:11.044Z,41.56
2022-08-05T11:49:43.236Z,41.85
2022-08-05T11:52:29.345Z,41.05
2022-08-05T11:55:07.611Z,41.78
2022-08-05T11:58:10.895Z,41.89
2022-08-05T12:00:29.060Z,42.20
2022-08-05T12:02:59.513Z,42.11
2022-08-05T12:05:32.210Z,41.96
2022-08-05T12:08:11.240Z,42.33
2022-08-05T12:10:45.490Z,41.91
2022-08-05T12:13:17.265Z,41.73
2022-08-05T12:15:56.372Z,42.39
2022-08-05T12:18:33.188Z,42.81
2022-08-05T12:21:13.518Z,41.66
2022-08-05T12:23:54.433Z,42.72
2022-08-05T12:26:23.961Z,42.42
2022-08-05T12:28:52.561Z,41.94
2022-08-05T12:31:23.759Z,42.09
2022-08-05T12:34:04.291Z,41.64
2022-08-05T12:36:34.553Z,41.68
2022-08-05T12:39:06.846Z,42.34
2022-08-05T12:41:43.820Z,42.79
2022-08-05T12:44:28.689Z,41.49
2022-08-05T12:47:04.431Z,40.80
2022-08-05T12:50:04.340Z,41.08
2022-08-05T12:52:39.348Z,41.07
2022-08-05T12:55:23.608Z,39.70
2022-08-05T12:58:48.951Z,39.67
2022-08-05T13:02:00.419Z,37.97
2022-08-05T13:03:42.329Z,38.11
2022-08-05T13:06:17.838Z,38.12
2022-08-05T13:08:52.227Z,38.65
2022-08-05T13:12:01.696Z,38.38
2022-08-05T13:14:20.107Z,37.91
2022-08-05T13:16:56.616Z,38.13
2022-08-05T13:19:27.636Z,37.73
2022-08-05T13:22:28.185Z,37.84
2022-08-05T13:25:05.809Z,37.05
2022-08-05T13:27:39.291Z,37.93
2022-08-05T13:30:33.584Z,36.50
2022-08-05T13:33:01.310Z,37.05
2022-08-05T13:35:47.555Z,36.77
2022-08-05T13:38:30.312Z,37.10
2022-08-05T13:41:06.769Z,37.57
2022-08-05T13:43:44.219Z,37.70
2022-08-05T13:46:15.409Z,37.62
2022-08-05T13:48:58.155Z,38.05
2022-08-05T13:51:40.439Z,38.01
2022-08-05T13:54:13.097Z,37.65
2022-08-05T13:56:50.996Z,37.77
2022-08-05T13:59:24.245Z,37.28
2022-08-05T14:01:57.673Z,37.56
2022-08-05T14:04:49.555Z,38.13
2022-08-05T14:07:25.578Z,38.65
2022-08-05T14:10:13.134Z,37.87
2022-08-05T14:12:48.674Z,37.59
2022-08-05T14:16:07.404Z,37.70
2022-08-05T14:18:15.151Z,37.70
2022-08-05T14:20:48.457Z,37.70
2022-08-05T14:23:23.410Z,37.65
2022-08-05T14:25:54.536Z,38.19
2022-08-05T14:28:28.914Z,37.65
2022-08-05T14:30:57.745Z,38.15
2022-08-05T14:33:26.131Z,37.64
2022-08-05T14:35:55.073Z,37.81
2022-08-05T14:38:33.152Z,38.30
2022-08-05T14:41:07.653Z,37.39
2022-08-05T14:43:51.819Z,37.57
2022-08-05T14:46:30.722Z,37.37
2022-08-05T14:49:06.656Z,38.16
2022-08-05T14:51:37.697Z,37.65
2022-08-05T14:54:28.021Z,37.06
2022-08-05T14:56:56.349Z,37.32
2022-08-05T14:59:29.504Z,37.46
2022-08-05T15:02:15.182Z,36.81
2022-08-05T15:04:53.155Z,37.32
2022-08-05T15:08:06.315Z,37.22
2022-08-05T15:10:11.842Z,37.22
2022-08-05T15:12:59.867Z,37.11
2022-08-05T15:15:54.323Z,37.34
2022-08-05T15:18:20.735Z,36.97
2022-08-05T15:20:50.925Z,36.54
2022-08-05T15:23:20.120Z,36.26
2022-08-05T15:25:53.454Z,35.89
2022-08-05T15:28:27.117Z,34.89
2022-08-05T15:30:58.549Z,35.19
2022-08-05T15:34:04.705Z,34.75
2022-08-05T15:36:24.410Z,34.67
2022-08-05T15:41:00.151Z,35.36
2022-08-05T15:41:55.555Z,36.46
2022-08-05T15:44:27.594Z,37.09
2022-08-05T15:46:58.082Z,37.07
2022-08-05T15:49:55.173Z,37.20
2022-08-05T15:52:16.797Z,36.74
2022-08-05T15:54:58.320Z,36.10
2022-08-05T15:57:33.055Z,35.84
2022-08-05T16:00:03.866Z,36.09
2022-08-05T16:02:34.961Z,36.60
2022-08-05T16:05:03.665Z,36.59
2022-08-05T16:07:33.969Z,37.46
2022-08-05T16:10:02.850Z,37.20
2022-08-05T16:12:32.002Z,37.48
2022-08-05T16:15:01.264Z,37.58
2022-08-05T16:17:30.628Z,38.13
2022-08-05T16:20:05.105Z,37.95
2022-08-05T16:22:41.397Z,38.04
2022-08-05T16:25:11.466Z,38.03
2022-08-05T16:28:00.196Z,38.96
2022-08-05T16:30:31.083Z,39.44
2022-08-05T16:33:00.932Z,39.24
2022-08-05T16:35:33.517Z,39.38
2022-08-05T16:38:23.897Z,39.52
2022-08-05T16:40:59.572Z,39.80
2022-08-05T16:43:32.591Z,39.73
2022-08-05T16:46:04.942Z,39.99
2022-08-05T16:48:39.212Z,39.75
2022-08-05T16:51:10.936Z,40.03
2022-08-05T16:54:05.178Z,39.69
2022-08-05T16:56:31.024Z,39.75
2022-08-05T16:59:00.774Z,39.72
2022-08-05T17:01:52.541Z,39.93
2022-08-05T17:04:18.943Z,40.21
2022-08-05T17:06:53.273Z,40.35
2022-08-05T17:09:23.186Z,40.82
2022-08-05T17:11:56.081Z,40.39
2022-08-05T17:14:34.268Z,40.84
2022-08-05T17:17:05.876Z,40.84
2022-08-05T17:19:34.543Z,40.91
2022-08-05T17:22:04.435Z,40.30
2022-08-05T17:24:38.995Z,40.39
2022-08-05T17:27:11.968Z,41.22
2022-08-05T17:29:45.734Z,41.39
2022-08-05T17:32:17.233Z,41.57
2022-08-05T17:34:48.109Z,42.05
2022-08-05T17:37:41.592Z,42.22
2022-08-05T17:40:12.496Z,41.54
2022-08-05T17:42:46.500Z,41.70
2022-08-05T17:45:22.260Z,41.51
2022-08-05T17:47:54.374Z,41.26
2022-08-05T17:50:28.545Z,41.36
2022-08-05T17:53:05.289Z,41.29
2022-08-05T17:55:39.727Z,41.91
2022-08-05T17:58:11.291Z,41.67
2022-08-05T18:00:45.065Z,41.35
2022-08-05T18:03:55.936Z,41.45
2022-08-05T18:06:12.180Z,41.51
2022-08-05T18:08:52.715Z,41.42
2022-08-05T18:11:32.511Z,41.00
2022-08-05T18:14:06.515Z,40.52
2022-08-05T18:16:46.852Z,40.01
2022-08-05T18:19:22.675Z,39.44
2022-08-05T18:22:07.733Z,39.41
2022-08-05T18:24:40.284Z,39.32
2022-08-05T18:27:19.205Z,39.10
2022-08-05T18:29:54.180Z,39.42
2022-08-05T18:32:28.342Z,39.16
2022-08-05T18:35:12.579Z,38.90
2022-08-05T18:37:41.782Z,38.74
2022-08-05T18:40:57.598Z,38.93
2022-08-05T18:43:03.092Z,39.58
2022-08-05T18:45:41.318Z,39.83
2022-08-05T18:48:17.429Z,39.37
2022-08-05T18:52:05.512Z,39.11
2022-08-05T18:54:08.764Z,39.29
2022-08-05T18:56:40.460Z,39.27
2022-08-05T18:59:42.019Z,39.32
2022-08-05T19:01:58.298Z,38.79
2022-08-05T19:04:27.702Z,38.84
2022-08-05T19:06:56.326Z,38.80
2022-08-05T19:09:25.042Z,38.49
2022-08-05T19:12:00.497Z,38.74
2022-08-05T19:15:00.558Z,38.66
2022-08-05T19:17:59.584Z,38.67
2022-08-05T19:20:17.456Z,38.40
2022-08-05T19:22:46.619Z,38.44
2022-08-05T19:25:29.681Z,37.98
2022-08-05T19:28:00.568Z,37.84
2022-08-05T19:30:30.533Z,37.93
2022-08-05T19:32:59.113Z,37.95
2022-08-05T19:35:28.065Z,37.76
2022-08-05T19:38:16.248Z,38.08
2022-08-05T19:40:53.010Z,37.72
2022-08-05T19:44:04.851Z,37.40
2022-08-05T19:46:16.722Z,37.54
2022-08-05T19:49:02.892Z,38.14
2022-08-05T19:52:13.241Z,37.81
2022-08-05T19:54:26.744Z,37.78
2022-08-05T19:57:10.108Z,38.13
2022-08-05T19:59:55.754Z,37.91
2022-08-05T20:02:32.747Z,37.84
2022-08-05T20:05:04.661Z,38.22
2022-08-05T20:07:46.829Z,38.03
2022-08-05T20:10:22.354Z,38.17
2022-08-05T20:12:53.234Z,38.26
2022-08-05T20:15:51.723Z,38.34
2022-08-05T20:18:33.978Z,38.89
2022-08-05T20:21:00.977Z,38.93
2022-08-05T20:23:39.472Z,38.62
2022-08-05T20:26:20.349Z,39.28
2022-08-05T20:28:50.973Z,39.26
2022-08-05T20:31:37.632Z,39.49
2022-08-05T20:34:12.491Z,39.63
2022-08-05T20:36:43.490Z,39.86
2022-08-05T20:39:13.136Z,39.91
2022-08-05T20:41:43.246Z,40.22
2022-08-05T20:44:18.397Z,40.44
2022-08-05T20:46:59.926Z,40.40
2022-08-05T20:49:28.335Z,40.47
2022-08-05T20:51:58.115Z,40.01
2022-08-05T20:54:55.591Z,39.65
2022-08-05T20:57:41.745Z,40.44
2022-08-05T21:00:19.813Z,41.13
2022-08-05T21:02:56.905Z,41.18
2022-08-05T21:05:25.834Z,41.44
2022-08-05T21:08:07.483Z,41.49
2022-08-05T21:10:36.885Z,41.86
2022-08-05T21:13:11.085Z,42.03
2022-08-05T21:15:46.176Z,42.06
2022-08-05T21:18:21.322Z,42.43
2022-08-05T21:20:53.668Z,42.26
2022-08-05T21:23:24.247Z,42.26
2022-08-05T21:25:55.440Z,42.51
2022-08-05T21:28:24.333Z,42.43
2022-08-05T21:30:59.253Z,41.79
2022-08-05T21:33:39.831Z,42.87
2022-08-05T21:36:08.671Z,42.58
2022-08-05T21:38:40.567Z,43.06
2022-08-05T21:41:09.634Z,43.03
2022-08-05T21:43:41.719Z,43.00
2022-08-05T21:46:11.848Z,43.25
2022-08-05T21:48:42.265Z,43.36
2022-08-05T21:51:25.284Z,43.25
2022-08-05T21:54:03.621Z,43.38
2022-08-05T21:56:32.533Z,43.10
2022-08-05T21:59:07.797Z,43.62
2022-08-05T22:01:36.752Z,43.71
2022-08-05T22:04:06.800Z,43.69
2022-08-05T22:06:42.689Z,43.92
2022-08-05T22:09:21.180Z,43.94
2022-08-05T22:11:51.230Z,44.06
2022-08-05T22:14:35.515Z,44.37
2022-08-05T22:17:07.587Z,44.51
2022-08-05T22:20:00.540Z,44.60
2022-08-05T22:22:29.530Z,44.61
2022-08-05T22:25:21.292Z,44.79
2022-08-05T22:28:08.707Z,44.82
2022-08-05T22:30:56.154Z,44.72
2022-08-05T22:33:57.387Z,44.96
2022-08-05T22:36:18.881Z,45.23
2022-08-05T22:38:48.915Z,45.29
2022-08-05T22:42:05.411Z,45.52
2022-08-05T22:44:08.862Z,45.34
2022-08-05T22:46:39.772Z,45.71
2022-08-05T22:49:23.089Z,45.67
2022-08-05T22:52:04.521Z,45.64
2022-08-05T22:54:36.047Z,45.83
2022-08-05T22:57:04.838Z,45.81
2022-08-05T22:59:43.896Z,46.20
2022-08-05T23:02:17.805Z,45.93
2022-08-05T23:04:51.386Z,46.11
2022-08-05T23:07:23.372Z,46.11
2022-08-05T23:09:57.015Z,46.10
2022-08-05T23:12:29.146Z,46.38
2022-08-05T23:15:03.431Z,46.32
2022-08-05T23:17:37.183Z,46.38
2022-08-05T23:20:17.055Z,46.33
2022-08-05T23:22:48.648Z,46.62
2022-08-05T23:25:52.100Z,46.90
2022-08-05T23:28:08.288Z,46.87
2022-08-05T23:30:40.381Z,47.14
2022-08-05T23:33:22.526Z,46.30
2022-08-05T23:35:56.320Z,46.87
2022-08-05T23:38:27.051Z,47.07
2022-08-05T23:40:56.142Z,47.27
2022-08-05T23:44:02.768Z,47.52
2022-08-05T23:46:20.749Z,47.38
2022-08-05T23:49:00.014Z,47.59
2022-08-05T23:51:53.189Z,47.46
2022-08-05T23:54:29.893Z,47.52
2022-08-05T23:57:04.083Z,47.56
